Time;durP1;ratioP1;P1;durP2;ratioP2;P2;SDS_P1;SDS_P2;PMS_P1;PMS_P2;Temp;Humidity;BMP_temperature;BMP_pressure;BME280_temperature;BME280_humidity;BME280_pressure;Samples;Min_cycle;Max_cycle;Signal;HPM_P1;HPM_P2
2023/05/06 00:01:06;;;;;;;1.67;1.25;;;22.20;46.90;;;;;;5084490;28;20028;-61
2023/05/06 00:03:33;;;;;;;1.63;1.17;;;22.20;46.90;;;;;;5067246;28;20127;-60
2023/05/06 00:05:59;;;;;;;1.88;1.20;;;22.20;46.90;;;;;;5083872;28;20163;-60
2023/05/06 00:08:25;;;;;;;2.35;1.38;;;22.10;46.80;;;;;;5083977;28;20028;-61
2023/05/06 00:10:51;;;;;;;1.50;1.30;;;22.10;46.80;;;;;;5065661;28;20343;-60
2023/05/06 00:13:17;;;;;;;1.50;1.20;;;22.10;46.80;;;;;;5066378;28;20434;-59
2023/05/06 00:15:42;;;;;;;1.58;1.10;;;22.10;46.80;;;;;;5085241;28;20406;-62
2023/05/06 00:18:08;;;;;;;1.92;1.40;;;22.10;46.90;;;;;;5085551;28;20032;-62
2023/05/06 00:20:35;;;;;;;2.00;1.30;;;22.10;46.80;;;;;;5086934;28;20093;-61
2023/05/06 00:23:00;;;;;;;1.83;1.13;;;22.10;46.80;;;;;;5084005;28;20036;-62
2023/05/06 00:25:26;;;;;;;2.08;1.30;;;22.10;46.90;;;;;;5085228;28;20470;-61
2023/05/06 00:27:52;;;;;;;1.45;1.15;;;22.10;46.80;;;;;;5066933;28;20059;-61
2023/05/06 00:30:18;;;;;;;1.67;1.23;;;22.10;46.80;;;;;;5068684;28;20085;-61
2023/05/06 00:32:44;;;;;;;1.95;1.50;;;22.10;46.80;;;;;;5086762;28;20028;-61
2023/05/06 00:35:11;;;;;;;2.63;1.20;;;22.10;46.90;;;;;;5084514;28;20103;-64
2023/05/06 00:37:36;;;;;;;2.08;1.40;;;22.10;47.00;;;;;;5085487;28;20104;-62
2023/05/06 00:40:03;;;;;;;1.75;1.30;;;22.10;47.10;;;;;;5086811;28;20024;-61
2023/05/06 00:42:29;;;;;;;1.17;1.02;;;22.10;47.10;;;;;;5088247;28;20115;-62
2023/05/06 00:44:54;;;;;;;4.22;1.60;;;22.10;47.20;;;;;;5070597;28;20172;-60
2023/05/06 00:47:21;;;;;;;1.80;1.13;;;22.10;47.20;;;;;;5089826;28;20031;-61
2023/05/06 00:49:48;;;;;;;1.63;1.30;;;22.00;47.20;;;;;;5054411;28;20101;-63
2023/05/06 00:52:16;;;;;;;2.50;1.10;;;22.10;47.20;;;;;;5087525;28;20085;-62
2023/05/06 00:54:42;;;;;;;2.20;1.50;;;22.10;47.30;;;;;;5070563;28;20417;-62
2023/05/06 00:57:08;;;;;;;2.50;1.50;;;22.00;47.20;;;;;;5088725;28;20095;-63
2023/05/06 00:59:34;;;;;;;2.50;1.30;;;22.00;47.90;;;;;;5070517;28;20115;-65
2023/05/06 01:02:00;;;;;;;1.50;1.20;;;22.00;47.30;;;;;;5089087;28;20024;-61
2023/05/06 01:04:28;;;;;;;1.40;1.30;;;22.00;47.20;;;;;;5089249;28;20092;-62
2023/05/06 01:07:15;;;;;;;1.77;1.20;;;22.00;47.20;;;;;;5069699;28;20035;-60
2023/05/06 01:09:49;;;;;;;1.48;1.10;;;22.00;47.20;;;;;;5088483;28;20086;-60
2023/05/06 01:12:40;;;;;;;1.83;1.20;;;22.00;47.20;;;;;;5082136;28;20043;-63
2023/05/06 01:15:22;;;;;;;1.73;1.40;;;22.00;47.20;;;;;;5067796;28;20549;-60
2023/05/06 01:17:50;;;;;;;2.28;1.38;;;22.00;47.20;;;;;;5083223;28;20852;-61
2023/05/06 01:20:19;;;;;;;1.77;1.20;;;22.00;47.20;;;;;;5066428;28;20031;-63
2023/05/06 01:22:45;;;;;;;3.08;1.30;;;22.00;47.20;;;;;;5082561;28;20032;-63
2023/05/06 01:25:20;;;;;;;1.58;1.33;;;22.00;47.20;;;;;;5065215;28;20442;-62
2023/05/06 01:27:47;;;;;;;2.22;1.30;;;22.00;47.10;;;;;;5064096;28;20400;-61
2023/05/06 01:30:15;;;;;;;1.80;1.30;;;22.00;47.80;;;;;;5084816;28;20281;-62
2023/05/06 01:33:13;;;;;;;1.65;1.20;;;21.90;47.10;;;;;;5085134;28;20028;-63
2023/05/06 01:36:27;;;;;;;1.67;1.40;;;22.00;47.20;;;;;;5082663;28;20332;-62
2023/05/06 01:39:07;;;;;;;2.65;1.55;;;21.90;47.10;;;;;;5062099;28;20055;-63
2023/05/06 01:41:37;;;;;;;2.47;1.50;;;21.90;47.20;;;;;;5084939;28;20045;-62
2023/05/06 01:44:05;;;;;;;1.40;1.30;;;21.90;47.20;;;;;;5068300;28;20084;-62
2023/05/06 01:46:34;;;;;;;1.52;1.20;;;21.90;47.20;;;;;;5066557;28;20127;-64
2023/05/06 01:49:06;;;;;;;1.48;1.38;;;21.90;47.20;;;;;;5062379;28;20101;-62
2023/05/06 01:51:33;;;;;;;2.10;1.50;;;21.90;47.20;;;;;;5084960;28;20055;-62
2023/05/06 01:54:00;;;;;;;1.50;1.25;;;21.90;47.20;;;;;;5065039;28;20104;-63
2023/05/06 01:56:29;;;;;;;2.05;1.40;;;21.90;47.20;;;;;;5065365;28;20072;-61
2023/05/06 01:58:56;;;;;;;1.45;1.30;;;21.90;47.20;;;;;;5067244;28;20020;-62
2023/05/06 02:01:22;;;;;;;2.08;1.38;;;21.90;47.30;;;;;;5083437;28;20028;-64
2023/05/06 02:03:48;;;;;;;1.83;1.30;;;21.90;47.30;;;;;;5064800;28;20393;-60
2023/05/06 02:06:14;;;;;;;2.22;1.35;;;21.90;47.90;;;;;;5064917;28;20028;-60
2023/05/06 02:08:40;;;;;;;1.92;1.50;;;21.90;47.30;;;;;;5082300;28;20309;-63
2023/05/06 02:11:07;;;;;;;1.90;1.27;;;21.90;47.30;;;;;;5064854;28;20377;-60
2023/05/06 02:13:33;;;;;;;2.10;1.48;;;21.90;47.30;;;;;;5065669;28;20032;-62
2023/05/06 02:16:00;;;;;;;1.67;1.58;;;21.90;47.30;;;;;;5068855;28;20106;-62
2023/05/06 02:18:26;;;;;;;1.27;1.15;;;21.90;47.30;;;;;;5069607;28;20111;-64
2023/05/06 02:20:52;;;;;;;2.70;1.73;;;21.80;47.20;;;;;;5086428;28;20028;-62
2023/05/06 02:23:18;;;;;;;1.85;1.50;;;21.90;47.50;;;;;;5069775;28;20046;-61
2023/05/06 02:25:45;;;;;;;1.48;1.27;;;21.80;47.20;;;;;;5084472;28;20032;-60
2023/05/06 02:28:11;;;;;;;1.50;1.27;;;21.90;47.20;;;;;;5086877;28;20116;-63
2023/05/06 02:30:37;;;;;;;2.85;1.50;;;21.90;47.20;;;;;;5072918;28;20185;-61
2023/05/06 02:33:03;;;;;;;1.85;1.52;;;21.80;47.20;;;;;;5087638;28;20100;-61
2023/05/06 02:35:29;;;;;;;2.00;1.60;;;21.80;47.20;;;;;;5065659;28;20226;-63
2023/05/06 02:37:55;;;;;;;1.60;1.30;;;21.80;47.20;;;;;;5049715;28;20040;-60
2023/05/06 02:40:20;;;;;;;3.40;1.40;;;21.80;47.20;;;;;;5089875;28;20080;-62
2023/05/06 02:42:46;;;;;;;1.52;1.33;;;21.80;47.20;;;;;;5090656;28;20024;-61
2023/05/06 02:45:12;;;;;;;1.83;1.50;;;21.90;47.20;;;;;;5072947;28;20117;-60
2023/05/06 02:47:38;;;;;;;1.48;1.33;;;21.80;47.10;;;;;;5073516;28;20080;-61
2023/05/06 02:50:04;;;;;;;1.35;1.23;;;21.80;47.10;;;;;;5091243;28;20035;-61
2023/05/06 02:52:32;;;;;;;1.80;1.13;;;21.80;47.10;;;;;;5090050;28;20095;-60
2023/05/06 02:54:58;;;;;;;1.85;1.40;;;21.80;47.10;;;;;;5091345;28;20155;-60
2023/05/06 02:57:23;;;;;;;1.35;1.20;;;21.80;47.10;;;;;;5090499;28;20111;-62
2023/05/06 02:59:49;;;;;;;2.92;1.42;;;21.80;47.10;;;;;;5073163;28;20024;-61
2023/05/06 03:02:15;;;;;;;2.00;1.55;;;21.80;47.10;;;;;;5073193;28;20024;-61
2023/05/06 03:04:41;;;;;;;2.00;1.55;;;21.80;47.20;;;;;;5056522;28;20024;-60
2023/05/06 03:07:06;;;;;;;2.20;1.67;;;21.80;47.20;;;;;;5072196;28;20405;-62
2023/05/06 03:09:32;;;;;;;1.73;1.50;;;21.80;47.20;;;;;;5090763;28;20024;-61
2023/05/06 03:11:59;;;;;;;1.80;1.55;;;21.80;47.20;;;;;;5091003;28;20056;-61
2023/05/06 03:14:25;;;;;;;1.70;1.50;;;21.80;47.20;;;;;;5073278;28;20035;-62
2023/05/06 03:16:51;;;;;;;2.08;1.67;;;21.80;47.20;;;;;;5089852;28;20047;-60
2023/05/06 03:19:17;;;;;;;1.65;1.52;;;21.80;47.80;;;;;;5072834;28;20020;-63
2023/05/06 03:21:44;;;;;;;2.80;1.50;;;21.80;47.20;;;;;;5072685;28;20071;-60
2023/05/06 03:24:10;;;;;;;1.58;1.25;;;21.80;47.80;;;;;;5090911;28;20024;-60
2023/05/06 03:26:36;;;;;;;1.83;1.60;;;21.70;47.10;;;;;;5071278;28;20039;-60
2023/05/06 03:29:02;;;;;;;2.15;1.65;;;21.80;47.20;;;;;;5072244;28;20096;-60
2023/05/06 03:31:29;;;;;;;1.67;1.50;;;21.70;47.10;;;;;;5054717;28;20033;-61
2023/05/06 03:33:56;;;;;;;2.15;1.70;;;21.70;47.20;;;;;;5072838;28;20024;-61
2023/05/06 03:36:26;;;;;;;1.73;1.55;;;21.70;47.10;;;;;;5073085;28;20024;-62
2023/05/06 03:38:54;;;;;;;1.70;1.60;;;21.80;47.20;;;;;;5091421;28;20027;-64
2023/05/06 03:41:20;;;;;;;1.77;1.27;;;21.70;47.10;;;;;;5069949;28;20112;-61
2023/05/06 03:43:46;;;;;;;2.08;1.80;;;21.70;47.70;;;;;;5072101;28;20124;-61
2023/05/06 03:46:14;;;;;;;1.60;1.50;;;21.70;47.10;;;;;;5071522;28;20113;-62
2023/05/06 03:48:40;;;;;;;1.92;1.40;;;21.70;47.00;;;;;;5078511;28;20428;-61
2023/05/06 03:51:10;;;;;;;1.35;1.25;;;21.70;47.00;;;;;;5069027;28;20658;-63
2023/05/06 03:53:36;;;;;;;1.60;1.50;;;21.70;47.00;;;;;;5068243;28;20092;-61
2023/05/06 03:56:03;;;;;;;1.67;1.40;;;21.70;47.00;;;;;;5052746;28;20428;-61
2023/05/06 03:58:30;;;;;;;1.83;1.50;;;21.70;47.00;;;;;;5067700;28;20043;-61
2023/05/06 04:00:58;;;;;;;2.25;1.80;;;21.70;47.00;;;;;;5064663;28;20622;-63
2023/05/06 04:03:24;;;;;;;2.63;1.80;;;21.70;47.00;;;;;;5065714;28;20024;-62
2023/05/06 04:05:51;;;;;;;2.53;1.80;;;21.70;47.00;;;;;;5084656;28;20054;-60
2023/05/06 04:08:20;;;;;;;2.00;1.80;;;21.70;47.00;;;;;;5065962;28;20100;-62
2023/05/06 04:10:46;;;;;;;2.00;1.55;;;21.70;46.90;;;;;;5064794;28;20376;-61
2023/05/06 04:13:18;;;;;;;2.20;1.55;;;21.70;47.00;;;;;;5067863;28;20111;-64
2023/05/06 04:15:44;;;;;;;1.90;1.70;;;21.70;46.90;;;;;;5067455;28;20458;-63
2023/05/06 04:18:17;;;;;;;1.50;1.20;;;21.60;46.90;;;;;;5064855;28;20336;-63
2023/05/06 04:20:47;;;;;;;2.03;1.65;;;21.70;47.00;;;;;;5084849;28;20024;-63
2023/05/06 04:23:14;;;;;;;1.77;1.65;;;21.60;46.90;;;;;;5066025;28;20074;-63
2023/05/06 04:25:41;;;;;;;1.55;1.35;;;21.60;47.00;;;;;;5069000;28;20028;-61
2023/05/06 04:28:10;;;;;;;1.33;1.23;;;21.60;46.90;;;;;;5066307;28;20073;-61
2023/05/06 04:30:36;;;;;;;1.70;1.40;;;21.60;46.90;;;;;;5070024;28;20062;-60
2023/05/06 04:33:02;;;;;;;1.70;1.45;;;21.60;47.00;;;;;;5066196;28;20039;-63
2023/05/06 04:35:29;;;;;;;1.85;1.60;;;21.60;46.90;;;;;;5066124;28;20032;-63
2023/05/06 04:37:56;;;;;;;1.45;1.33;;;21.60;47.00;;;;;;5066611;28;20035;-60
2023/05/06 04:40:27;;;;;;;1.30;1.20;;;21.60;46.90;;;;;;5068805;28;20052;-60
2023/05/06 04:42:53;;;;;;;1.83;1.63;;;21.60;46.90;;;;;;5071510;28;20408;-61
2023/05/06 04:45:23;;;;;;;1.38;1.20;;;21.60;46.90;;;;;;5055579;28;20374;-60
2023/05/06 04:47:51;;;;;;;1.55;1.30;;;21.60;47.00;;;;;;5071081;28;20089;-60
2023/05/06 04:50:18;;;;;;;1.42;1.13;;;21.60;46.90;;;;;;5069116;28;20239;-62
2023/05/06 04:52:44;;;;;;;1.63;1.20;;;21.60;46.90;;;;;;5089643;28;20070;-63
2023/05/06 04:55:11;;;;;;;1.48;1.30;;;21.60;46.90;;;;;;5071176;28;20384;-60
2023/05/06 04:57:39;;;;;;;1.30;1.10;;;21.60;46.90;;;;;;5071002;28;20020;-61
2023/05/06 05:00:06;;;;;;;1.15;1.05;;;21.60;46.90;;;;;;5070772;28;20110;-59
2023/05/06 05:02:32;;;;;;;1.27;1.05;;;21.60;47.00;;;;;;5070701;28;20438;-62
2023/05/06 05:04:58;;;;;;;0.93;0.90;;;21.60;47.00;;;;;;5088685;28;20055;-61
2023/05/06 05:07:24;;;;;;;1.92;1.05;;;21.60;47.00;;;;;;5069964;28;20050;-60
2023/05/06 05:09:50;;;;;;;1.27;1.10;;;21.60;47.00;;;;;;5070261;28;20024;-64
2023/05/06 05:12:16;;;;;;;0.80;0.80;;;21.60;47.00;;;;;;5064686;28;20084;-62
2023/05/06 05:14:46;;;;;;;2.45;1.00;;;21.60;47.00;;;;;;5066246;28;20035;-60
2023/05/06 05:17:12;;;;;;;1.08;0.98;;;21.60;47.10;;;;;;5065260;28;20316;-61
2023/05/06 05:19:39;;;;;;;1.30;1.10;;;21.60;47.10;;;;;;5063683;28;20146;-62
2023/05/06 05:22:06;;;;;;;1.52;1.00;;;21.60;47.10;;;;;;5062763;28;20024;-62
2023/05/06 05:24:32;;;;;;;2.38;1.75;;;21.60;47.10;;;;;;5065942;28;20020;-63
2023/05/06 05:26:58;;;;;;;1.48;1.35;;;21.60;47.20;;;;;;5066992;28;20028;-62
2023/05/06 05:29:25;;;;;;;1.20;1.05;;;21.60;47.20;;;;;;5068445;28;20088;-63
2023/05/06 05:31:52;;;;;;;1.15;1.05;;;21.60;47.20;;;;;;5049971;28;20036;-63
2023/05/06 05:34:18;;;;;;;0.90;0.90;;;21.60;47.20;;;;;;5048958;28;20105;-60
2023/05/06 05:36:44;;;;;;;1.23;1.13;;;21.60;47.30;;;;;;5066600;28;20123;-60
2023/05/06 05:39:12;;;;;;;1.20;1.10;;;21.60;47.30;;;;;;5065297;28;20024;-62
2023/05/06 05:41:42;;;;;;;1.33;1.23;;;21.60;47.30;;;;;;5069231;28;20093;-60
2023/05/06 05:44:09;;;;;;;1.33;1.10;;;21.60;47.30;;;;;;5066866;28;20032;-61
2023/05/06 05:46:35;;;;;;;1.70;1.20;;;21.60;47.30;;;;;;5066997;28;20356;-60
2023/05/06 05:49:02;;;;;;;1.60;1.20;;;21.60;47.40;;;;;;5065058;28;20039;-61
2023/05/06 05:51:28;;;;;;;1.55;1.38;;;21.60;47.40;;;;;;5083794;28;20328;-62
2023/05/06 05:53:56;;;;;;;1.20;1.10;;;21.60;47.40;;;;;;5065800;28;20036;-61
2023/05/06 05:56:23;;;;;;;1.02;0.93;;;21.60;47.40;;;;;;5067573;28;20115;-59
2023/05/06 05:58:49;;;;;;;1.75;1.40;;;21.70;47.50;;;;;;5083341;28;20268;-63
2023/05/06 06:01:16;;;;;;;1.30;1.20;;;21.60;47.40;;;;;;5063360;28;20061;-63
2023/05/06 06:03:42;;;;;;;1.30;1.20;;;21.60;47.40;;;;;;5065403;28;20065;-61
2023/05/06 06:06:08;;;;;;;1.38;1.10;;;21.60;47.40;;;;;;5065191;28;20069;-60
2023/05/06 06:08:35;;;;;;;1.42;1.10;;;21.70;47.50;;;;;;5065478;28;20034;-62
2023/05/06 06:11:03;;;;;;;1.27;1.17;;;21.60;47.50;;;;;;5062896;28;20058;-61
2023/05/06 06:13:35;;;;;;;1.40;1.30;;;21.70;47.60;;;;;;5063991;28;20049;-61
2023/05/06 06:16:00;;;;;;;1.20;1.00;;;21.70;47.60;;;;;;5082848;28;20400;-60
2023/05/06 06:18:26;;;;;;;1.23;1.10;;;21.70;47.60;;;;;;5063013;28;20419;-63
2023/05/06 06:20:52;;;;;;;1.27;1.17;;;21.70;47.60;;;;;;5066419;28;20097;-62
2023/05/06 06:23:18;;;;;;;1.10;1.00;;;21.70;47.60;;;;;;5081158;28;20032;-63
2023/05/06 06:25:44;;;;;;;1.20;1.10;;;21.70;47.70;;;;;;5065724;28;20023;-62
2023/05/06 06:28:10;;;;;;;1.70;1.20;;;21.80;47.80;;;;;;5082309;28;20441;-61
2023/05/06 06:30:36;;;;;;;1.40;1.13;;;21.70;47.80;;;;;;5051349;28;20040;-61
2023/05/06 06:33:03;;;;;;;1.33;1.10;;;21.80;47.90;;;;;;5064371;28;20115;-63
2023/05/06 06:35:29;;;;;;;1.95;1.35;;;21.80;47.90;;;;;;5082331;28;20340;-61
2023/05/06 06:37:55;;;;;;;1.52;1.30;;;21.80;48.00;;;;;;5066297;28;20035;-62
2023/05/06 06:40:21;;;;;;;1.58;1.40;;;21.80;48.10;;;;;;5083494;28;20391;-61
2023/05/06 06:42:47;;;;;;;1.55;1.30;;;21.80;48.20;;;;;;5080511;28;20086;-64
2023/05/06 06:45:28;;;;;;;1.52;1.23;;;21.80;48.20;;;;;;5063422;28;20314;-63
2023/05/06 06:47:54;;;;;;;2.08;1.27;;;21.80;48.20;;;;;;5083112;28;20141;-63
2023/05/06 06:50:20;;;;;;;1.83;1.40;;;21.80;48.20;;;;;;5083513;28;20135;-63
2023/05/06 06:52:46;;;;;;;2.97;1.70;;;21.90;48.20;;;;;;5076301;28;20051;-63
2023/05/06 06:55:12;;;;;;;3.45;2.15;;;21.80;48.20;;;;;;5057709;28;20095;-62
2023/05/06 06:57:38;;;;;;;3.50;2.50;;;21.80;48.20;;;;;;5066732;28;20728;-62
2023/05/06 07:00:05;;;;;;;3.35;2.65;;;21.80;48.20;;;;;;5066857;28;20043;-62
2023/05/06 07:02:31;;;;;;;4.75;3.05;;;21.80;48.20;;;;;;5051265;28;20158;-64
2023/05/06 07:04:56;;;;;;;5.05;3.95;;;21.90;48.20;;;;;;5070102;28;20142;-63
2023/05/06 07:07:22;;;;;;;5.32;4.45;;;21.90;48.30;;;;;;5068677;28;20024;-62
2023/05/06 07:09:48;;;;;;;5.70;4.65;;;21.90;48.30;;;;;;5070225;28;20024;-61
2023/05/06 07:12:14;;;;;;;7.38;4.72;;;21.90;48.20;;;;;;5078239;28;20433;-62
2023/05/06 07:14:42;;;;;;;6.45;4.78;;;21.90;48.20;;;;;;5088722;28;20362;-62
2023/05/06 07:17:08;;;;;;;6.50;5.00;;;21.90;48.20;;;;;;5067992;28;20036;-61
2023/05/06 07:19:34;;;;;;;6.47;4.60;;;21.90;48.20;;;;;;5088656;28;20095;-61
2023/05/06 07:22:01;;;;;;;6.47;5.07;;;21.90;48.20;;;;;;5086877;28;20300;-63
2023/05/06 07:24:27;;;;;;;6.38;4.63;;;21.90;48.20;;;;;;5086007;28;20040;-61
2023/05/06 07:26:53;;;;;;;7.78;5.20;;;21.90;48.20;;;;;;5069403;28;20083;-62
2023/05/06 07:29:19;;;;;;;5.72;4.68;;;21.90;48.20;;;;;;5088112;28;20081;-62
2023/05/06 07:31:45;;;;;;;6.57;5.07;;;21.90;48.20;;;;;;5089836;28;21591;-62
2023/05/06 07:34:11;;;;;;;6.20;4.85;;;21.90;48.20;;;;;;5090910;28;20754;-62
2023/05/06 07:36:41;;;;;;;6.72;5.40;;;21.90;48.10;;;;;;5091173;28;20020;-63
2023/05/06 07:39:08;;;;;;;5.63;4.95;;;22.00;48.20;;;;;;5072599;28;20292;-62
2023/05/06 07:41:34;;;;;;;8.13;5.72;;;22.00;48.20;;;;;;5066723;28;20638;-61
2023/05/06 07:44:00;;;;;;;6.97;5.93;;;22.00;48.20;;;;;;5086210;28;20028;-61
2023/05/06 07:46:26;;;;;;;7.65;6.20;;;22.00;48.50;;;;;;5082905;28;20040;-61
2023/05/06 07:48:51;;;;;;;9.35;7.03;;;22.00;48.50;;;;;;5086376;28;20097;-62
2023/05/06 07:51:18;;;;;;;9.50;8.02;;;22.10;48.60;;;;;;5085636;28;20050;-63
2023/05/06 07:53:44;;;;;;;9.52;8.25;;;22.10;48.60;;;;;;5085820;28;20416;-65
2023/05/06 07:56:10;;;;;;;9.40;8.13;;;22.10;49.20;;;;;;5086027;28;20300;-62
2023/05/06 07:58:36;;;;;;;9.60;7.97;;;22.10;48.50;;;;;;5066853;28;20036;-62
2023/05/06 08:01:02;;;;;;;9.65;8.13;;;22.10;48.50;;;;;;5087258;28;20020;-63
2023/05/06 08:03:29;;;;;;;9.75;8.40;;;22.10;48.50;;;;;;5085961;28;20024;-63
2023/05/06 08:05:55;;;;;;;8.85;7.63;;;22.10;48.40;;;;;;5087917;28;20066;-63
2023/05/06 08:08:22;;;;;;;9.52;7.85;;;22.10;48.40;;;;;;5083669;28;20032;-60
2023/05/06 08:10:48;;;;;;;9.95;8.63;;;22.20;48.50;;;;;;5069992;28;20127;-62
2023/05/06 08:13:13;;;;;;;10.35;7.97;;;22.20;48.50;;;;;;5067833;28;20062;-66
2023/05/06 08:15:40;;;;;;;9.90;8.55;;;22.10;48.40;;;;;;5086233;28;20403;-64
2023/05/06 08:18:05;;;;;;;11.10;9.07;;;22.20;48.50;;;;;;5073297;28;20028;-65
2023/05/06 08:20:32;;;;;;;12.50;9.55;;;22.20;48.50;;;;;;5078853;28;20034;-66
2023/05/06 08:22:59;;;;;;;13.32;10.32;;;22.30;48.50;;;;;;5076153;28;20107;-64
2023/05/06 08:25:25;;;;;;;11.65;10.40;;;22.30;48.40;;;;;;5085690;28;20052;-65
2023/05/06 08:27:51;;;;;;;12.05;10.48;;;22.40;48.30;;;;;;5083838;28;20064;-66
2023/05/06 08:30:17;;;;;;;12.05;9.88;;;22.50;48.30;;;;;;5082988;28;20036;-63
2023/05/06 08:32:43;;;;;;;11.80;10.40;;;22.50;48.00;;;;;;5085486;28;20020;-66
2023/05/06 08:35:09;;;;;;;11.43;9.88;;;22.60;47.90;;;;;;5085848;28;20451;-66
2023/05/06 08:37:34;;;;;;;12.52;10.48;;;22.60;47.60;;;;;;5084816;28;20040;-63
2023/05/06 08:40:01;;;;;;;12.63;11.00;;;22.70;47.50;;;;;;5085838;28;20031;-66
2023/05/06 08:42:29;;;;;;;11.38;10.15;;;22.80;47.30;;;;;;5084998;28;20042;-62
2023/05/06 08:44:55;;;;;;;11.40;10.05;;;22.80;47.20;;;;;;5083322;28;20060;-64
2023/05/06 08:47:22;;;;;;;11.48;9.98;;;22.90;47.20;;;;;;5084957;28;20043;-66
2023/05/06 08:49:48;;;;;;;12.43;10.52;;;22.90;47.10;;;;;;5066322;28;20344;-64
2023/05/06 08:52:14;;;;;;;12.95;10.93;;;23.00;47.00;;;;;;5085378;28;20036;-68
2023/05/06 08:54:42;;;;;;;12.77;11.35;;;23.10;47.00;;;;;;5086292;28;20031;-65
2023/05/06 08:57:11;;;;;;;14.38;11.98;;;23.10;46.80;;;;;;5084711;28;20435;-66
2023/05/06 08:59:37;;;;;;;14.98;12.73;;;23.30;46.60;;;;;;5052041;28;20399;-62
2023/05/06 09:02:04;;;;;;;14.38;12.88;;;23.30;46.70;;;;;;5085185;28;20032;-63
2023/05/06 09:04:34;;;;;;;13.25;11.70;;;23.40;46.60;;;;;;5087508;28;20404;-62
2023/05/06 09:07:00;;;;;;;13.68;12.20;;;23.40;46.50;;;;;;5070290;28;20424;-63
2023/05/06 09:09:25;;;;;;;13.75;11.63;;;23.50;46.40;;;;;;5089242;28;20081;-62
2023/05/06 09:11:54;;;;;;;13.73;11.45;;;23.60;46.30;;;;;;5088631;28;20047;-62
2023/05/06 09:14:21;;;;;;;12.25;10.45;;;23.60;46.10;;;;;;5086528;28;20081;-62
2023/05/06 09:16:49;;;;;;;11.60;9.93;;;23.60;46.00;;;;;;5088507;28;20414;-65
2023/05/06 09:19:16;;;;;;;10.35;9.25;;;23.70;45.90;;;;;;5089531;28;20027;-63
2023/05/06 09:21:44;;;;;;;11.10;9.55;;;23.70;45.80;;;;;;5088844;28;20485;-64
2023/05/06 09:24:12;;;;;;;10.48;8.93;;;23.80;45.70;;;;;;5088156;28;20040;-64
2023/05/06 09:26:39;;;;;;;10.18;8.25;;;23.80;45.60;;;;;;5085607;28;20079;-65
2023/05/06 09:29:05;;;;;;;10.88;8.98;;;23.80;45.40;;;;;;5083467;28;20056;-64
2023/05/06 09:31:31;;;;;;;9.93;8.50;;;23.90;45.40;;;;;;5075779;28;20459;-62
2023/05/06 09:33:59;;;;;;;10.88;8.75;;;23.90;45.30;;;;;;5077820;28;20058;-63
2023/05/06 09:36:27;;;;;;;11.63;8.70;;;23.90;45.20;;;;;;5081188;28;20032;-63
2023/05/06 09:38:56;;;;;;;11.68;10.25;;;24.00;45.20;;;;;;5083936;28;20024;-63
2023/05/06 09:41:24;;;;;;;14.13;12.63;;;24.00;45.10;;;;;;5084739;28;20419;-64
2023/05/06 09:43:54;;;;;;;18.52;15.93;;;24.00;45.20;;;;;;5083930;28;20024;-65
2023/05/06 09:46:21;;;;;;;19.00;16.98;;;24.10;45.20;;;;;;5064468;28;20400;-62
2023/05/06 09:48:50;;;;;;;23.25;19.25;;;24.10;45.20;;;;;;5083200;28;20502;-65
2023/05/06 09:51:15;;;;;;;21.23;19.02;;;24.10;45.10;;;;;;5082147;28;20467;-63
2023/05/06 09:53:43;;;;;;;23.08;20.58;;;24.10;45.10;;;;;;5083495;28;20042;-65
2023/05/06 09:56:10;;;;;;;22.48;20.17;;;24.10;45.00;;;;;;5063783;28;20040;-64
2023/05/06 09:58:37;;;;;;;20.55;17.98;;;24.20;45.00;;;;;;5072654;28;20020;-63
2023/05/06 10:01:05;;;;;;;19.50;17.50;;;24.20;45.50;;;;;;5066150;28;20115;-63
2023/05/06 10:03:32;;;;;;;17.85;15.88;;;24.20;44.70;;;;;;5066356;28;20077;-63
2023/05/06 10:06:04;;;;;;;16.20;14.40;;;24.30;44.60;;;;;;5082483;28;20087;-63
2023/05/06 10:08:32;;;;;;;18.95;14.52;;;24.30;44.50;;;;;;5081381;28;20022;-61
2023/05/06 10:11:00;;;;;;;16.52;14.25;;;24.30;44.40;;;;;;5084116;28;20116;-62
2023/05/06 10:13:26;;;;;;;15.45;13.48;;;24.30;44.30;;;;;;5083627;28;20115;-62
2023/05/06 10:15:53;;;;;;;15.98;13.50;;;24.30;44.20;;;;;;5083515;28;20035;-63
2023/05/06 10:18:20;;;;;;;15.35;13.23;;;24.30;44.10;;;;;;5083131;28;20032;-61
2023/05/06 10:20:47;;;;;;;15.05;13.45;;;24.40;44.10;;;;;;5084079;28;20466;-63
2023/05/06 10:23:21;;;;;;;15.85;13.68;;;24.40;44.00;;;;;;5066177;28;20370;-63
2023/05/06 10:25:50;;;;;;;14.93;13.35;;;24.40;44.00;;;;;;5081268;28;20025;-63
2023/05/06 10:28:19;;;;;;;13.68;12.25;;;24.40;44.00;;;;;;5083759;28;20085;-64
2023/05/06 10:30:46;;;;;;;12.38;11.18;;;24.50;44.00;;;;;;5085021;28;20373;-63
2023/05/06 10:33:13;;;;;;;20.25;12.60;;;24.50;43.90;;;;;;5083571;28;20111;-64
2023/05/06 10:35:43;;;;;;;15.40;12.23;;;24.50;43.90;;;;;;5085795;28;20404;-63
2023/05/06 10:38:15;;;;;;;14.18;12.68;;;24.50;44.00;;;;;;5067257;28;20031;-61
2023/05/06 10:40:42;;;;;;;13.93;12.20;;;24.60;44.00;;;;;;5086635;28;20031;-65
2023/05/06 10:43:28;;;;;;;12.93;11.55;;;24.60;43.80;;;;;;5076696;28;20028;-63
2023/05/06 10:46:20;;;;;;;15.40;11.52;;;24.60;43.60;;;;;;5071856;28;20058;-64
2023/05/06 10:49:09;;;;;;;12.98;11.48;;;24.70;43.50;;;;;;5085022;28;20047;-62
2023/05/06 10:51:40;;;;;;;12.88;11.40;;;24.70;43.40;;;;;;5070261;28;20083;-64
2023/05/06 10:54:08;;;;;;;14.48;12.52;;;24.70;43.30;;;;;;5071218;28;20089;-65
2023/05/06 10:56:47;;;;;;;13.40;12.00;;;24.80;43.30;;;;;;5090583;28;20101;-64
2023/05/06 10:59:12;;;;;;;14.65;13.10;;;24.80;43.10;;;;;;5092161;28;20111;-64
2023/05/06 11:01:43;;;;;;;14.57;12.57;;;24.80;43.10;;;;;;5083308;28;20249;-63
2023/05/06 11:04:17;;;;;;;12.02;10.45;;;24.90;43.00;;;;;;5084584;28;20032;-65
2023/05/06 11:06:52;;;;;;;;;;;24.90;42.90;;;;;;5070324;28;20335;-66
2023/05/06 11:09:21;;;;;;;10.75;9.65;;;24.90;42.90;;;;;;5070745;28;19923;-64
2023/05/06 11:12:03;;;;;;;11.80;10.60;;;24.90;42.80;;;;;;5049827;28;20490;-63
2023/05/06 11:14:35;;;;;;;14.70;13.20;;;25.00;43.40;;;;;;5067284;28;20131;-62
2023/05/06 11:17:08;;;;;;;15.82;14.25;;;25.00;42.80;;;;;;5068751;28;20032;-63
2023/05/06 11:19:36;;;;;;;19.55;17.48;;;25.00;42.90;;;;;;5059184;28;20032;-63
2023/05/06 11:22:08;;;;;;;16.58;14.88;;;25.10;42.90;;;;;;5082022;28;20028;-63
2023/05/06 11:24:43;;;;;;;17.27;15.35;;;25.10;42.90;;;;;;5088055;28;20024;-65
2023/05/06 11:27:10;;;;;;;17.67;15.85;;;25.10;42.80;;;;;;5084868;28;20475;-62
2023/05/06 11:29:36;;;;;;;18.38;15.82;;;25.10;42.70;;;;;;5065998;28;20061;-63
2023/05/06 11:32:21;;;;;;;16.63;14.75;;;25.20;42.80;;;;;;5093285;28;20040;-62
2023/05/06 11:34:47;;;;;;;14.50;12.93;;;25.20;42.70;;;;;;5085055;28;20028;-63
2023/05/06 11:37:26;;;;;;;14.55;12.98;;;25.20;42.70;;;;;;5086735;28;20038;-66
2023/05/06 11:39:52;;;;;;;16.88;15.15;;;25.20;42.50;;;;;;5085926;28;20378;-65
2023/05/06 11:42:26;;;;;;;17.73;15.90;;;25.20;42.40;;;;;;5087179;28;20107;-62
2023/05/06 11:45:00;;;;;;;22.23;19.73;;;25.20;42.40;;;;;;5057194;28;20060;-62
2023/05/06 11:47:26;;;;;;;21.30;19.00;;;25.30;42.40;;;;;;5086256;28;21566;-64
2023/05/06 11:49:57;;;;;;;21.20;18.73;;;25.30;42.40;;;;;;5085444;28;20119;-65
2023/05/06 11:52:24;;;;;;;21.73;19.52;;;25.30;42.30;;;;;;5067471;28;20032;-64
2023/05/06 11:54:54;;;;;;;21.65;19.35;;;25.40;42.30;;;;;;5051224;28;20887;-64
2023/05/06 11:57:21;;;;;;;21.67;19.48;;;25.30;42.20;;;;;;5085822;28;20038;-64
2023/05/06 11:59:53;;;;;;;22.13;19.83;;;25.40;42.20;;;;;;5088710;28;20037;-62
2023/05/06 12:02:20;;;;;;;21.25;19.00;;;25.40;42.20;;;;;;5083184;28;20488;-62
2023/05/06 12:04:48;;;;;;;22.40;18.20;;;25.40;42.20;;;;;;5052988;28;20028;-60
2023/05/06 12:07:15;;;;;;;20.58;18.38;;;25.50;42.40;;;;;;5083057;28;20138;-61
2023/05/06 12:09:45;;;;;;;19.38;17.45;;;25.50;42.50;;;;;;5068616;28;20036;-61
2023/05/06 12:12:14;;;;;;;18.88;16.92;;;25.50;42.40;;;;;;5087591;28;20036;-63
2023/05/06 12:14:43;;;;;;;18.33;15.90;;;25.50;42.40;;;;;;5090486;28;20028;-63
2023/05/06 12:17:11;;;;;;;18.17;16.25;;;25.50;42.40;;;;;;5091451;28;20396;-62
2023/05/06 12:19:37;;;;;;;18.98;16.95;;;25.50;42.40;;;;;;5091649;28;20442;-62
2023/05/06 12:22:21;;;;;;;19.55;17.50;;;25.40;42.30;;;;;;5091550;28;20095;-63
2023/05/06 12:24:47;;;;;;;21.15;18.95;;;25.40;42.40;;;;;;5091265;28;20422;-61
2023/05/06 12:27:27;;;;;;;21.15;19.05;;;25.40;42.40;;;;;;5072117;28;20028;-63
2023/05/06 12:29:57;;;;;;;21.58;19.35;;;25.40;42.50;;;;;;5088878;28;20398;-62
2023/05/06 12:32:23;;;;;;;20.63;18.52;;;25.30;42.50;;;;;;5069756;28;20447;-61
2023/05/06 12:34:49;;;;;;;20.65;18.55;;;25.30;42.50;;;;;;5091066;28;20040;-62
2023/05/06 12:37:28;;;;;;;22.90;20.52;;;25.20;42.60;;;;;;5087011;28;20049;-62
2023/05/06 12:39:56;;;;;;;22.73;20.45;;;25.20;42.70;;;;;;5083731;28;20028;-63
2023/05/06 12:42:22;;;;;;;22.02;19.83;;;25.20;42.80;;;;;;5087550;28;20038;-66
2023/05/06 12:44:49;;;;;;;22.83;20.50;;;25.20;42.90;;;;;;5082459;28;20055;-63